Time;durP1;ratioP1;P1;durP2;ratioP2;P2;SDS_P1;SDS_P2;PMS_P1;PMS_P2;Temp;Humidity;BMP_temperature;BMP_pressure;BME280_temperature;BME280_humidity;BME280_pressure;Samples;Min_cycle;Max_cycle;Signal;HPM_P1;HPM_P2
2022/03/16 00:01:24;;;;;;;26.13;21.60;;;9.20;99.90;;;;;;4995759;28;20509;-68
2022/03/16 00:03:50;;;;;;;24.40;19.47;;;9.20;99.90;;;;;;4995736;28;20680;-67
2022/03/16 00:06:15;;;;;;;22.93;20.40;;;9.20;99.90;;;;;;4995563;28;20188;-68
2022/03/16 00:08:40;;;;;;;20.87;18.33;;;9.30;99.90;;;;;;4995171;28;20286;-68
2022/03/16 00:11:06;;;;;;;21.23;18.90;;;9.30;99.90;;;;;;4995650;28;20255;-68
2022/03/16 00:13:32;;;;;;;24.00;20.83;;;9.30;99.90;;;;;;4995515;28;20182;-68
2022/03/16 00:15:57;;;;;;;24.17;20.47;;;9.20;99.90;;;;;;4995685;28;20366;-68
2022/03/16 00:18:23;;;;;;;26.30;21.43;;;9.20;99.90;;;;;;4995227;28;20183;-67
2022/03/16 00:20:48;;;;;;;26.00;22.50;;;9.20;99.90;;;;;;4995238;28;20175;-68
2022/03/16 00:23:16;;;;;;;31.07;21.83;;;9.20;99.90;;;;;;4994990;28;20237;-68
2022/03/16 00:25:42;;;;;;;24.47;20.70;;;9.20;99.90;;;;;;4995364;28;20649;-68
2022/03/16 00:28:07;;;;;;;25.80;21.80;;;9.10;99.90;;;;;;4995175;28;20454;-68
2022/03/16 00:30:33;;;;;;;26.33;22.33;;;9.10;99.90;;;;;;4995127;28;20453;-68
2022/03/16 00:32:59;;;;;;;26.50;23.40;;;9.10;99.90;;;;;;4995000;28;20553;-68
2022/03/16 00:35:24;;;;;;;29.43;24.13;;;9.00;99.90;;;;;;4995269;28;20541;-69
2022/03/16 00:37:50;;;;;;;27.80;23.80;;;9.00;99.90;;;;;;4994645;28;20259;-68
2022/03/16 00:40:15;;;;;;;26.13;21.93;;;9.10;99.90;;;;;;4995467;28;20175;-68
2022/03/16 00:42:41;;;;;;;28.37;23.97;;;9.10;99.90;;;;;;4994421;28;20195;-67
2022/03/16 00:45:07;;;;;;;32.00;27.03;;;9.20;99.90;;;;;;4995023;28;20176;-68
2022/03/16 00:47:32;;;;;;;32.23;24.30;;;9.20;99.90;;;;;;4994404;28;20278;-68
2022/03/16 00:49:58;;;;;;;27.40;24.27;;;9.20;99.90;;;;;;4994710;28;20909;-67
2022/03/16 00:52:23;;;;;;;28.10;24.23;;;9.20;99.90;;;;;;4994766;28;20302;-68
2022/03/16 00:54:49;;;;;;;28.17;24.27;;;9.30;99.90;;;;;;4994501;28;20713;-67
2022/03/16 00:57:14;;;;;;;30.00;23.87;;;9.20;99.90;;;;;;4995102;28;20645;-67
2022/03/16 00:59:40;;;;;;;29.93;25.60;;;9.20;99.90;;;;;;4993547;28;20171;-67
2022/03/16 01:02:06;;;;;;;28.87;24.60;;;9.20;99.90;;;;;;4994446;28;20258;-67
2022/03/16 01:04:31;;;;;;;31.77;25.53;;;9.20;99.90;;;;;;4994254;28;20207;-67
2022/03/16 01:06:57;;;;;;;31.60;26.50;;;9.20;99.90;;;;;;4994349;28;20195;-67
2022/03/16 01:09:23;;;;;;;26.13;23.10;;;9.20;99.90;;;;;;4993991;28;20203;-67
2022/03/16 01:11:49;;;;;;;28.60;25.50;;;9.20;99.90;;;;;;4994128;28;20179;-67
2022/03/16 01:14:14;;;;;;;25.97;22.60;;;9.30;99.90;;;;;;4994170;28;20203;-67
2022/03/16 01:16:40;;;;;;;31.07;24.17;;;9.30;99.90;;;;;;4993921;28;20202;-67
2022/03/16 01:19:06;;;;;;;31.33;25.00;;;9.30;99.90;;;;;;4993611;28;20960;-67
2022/03/16 01:21:33;;;;;;;32.93;26.47;;;9.30;99.90;;;;;;4993914;28;20585;-67
2022/03/16 01:23:59;;;;;;;36.40;26.73;;;9.30;99.90;;;;;;4993585;28;20427;-67
2022/03/16 01:26:24;;;;;;;32.97;29.37;;;9.30;99.90;;;;;;4992928;28;20431;-67
2022/03/16 01:28:50;;;;;;;30.37;25.00;;;9.30;99.90;;;;;;4993933;28;20451;-67
2022/03/16 01:31:19;;;;;;;29.93;24.60;;;9.30;99.90;;;;;;4994107;28;20569;-67
2022/03/16 01:33:44;;;;;;;29.90;25.17;;;9.30;99.90;;;;;;4993462;28;20176;-67
2022/03/16 01:36:10;;;;;;;33.13;26.10;;;9.30;99.90;;;;;;4988749;28;20481;-67
2022/03/16 01:38:36;;;;;;;32.90;28.73;;;9.30;99.90;;;;;;4983898;28;20297;-67
2022/03/16 01:41:01;;;;;;;35.00;27.33;;;9.30;99.90;;;;;;4993856;28;20186;-67
2022/03/16 01:43:27;;;;;;;33.80;28.47;;;9.20;99.90;;;;;;4988966;28;20187;-67
2022/03/16 01:45:53;;;;;;;33.57;28.03;;;9.00;99.90;;;;;;4983364;28;20266;-67
2022/03/16 01:48:19;;;;;;;36.60;28.97;;;8.90;99.90;;;;;;4993444;28;20253;-67
2022/03/16 01:50:46;;;;;;;33.97;28.80;;;8.90;99.90;;;;;;4993356;28;20570;-67
2022/03/16 01:53:12;;;;;;;41.37;30.80;;;8.90;99.90;;;;;;4993593;28;20477;-67
2022/03/16 01:55:40;;;;;;;35.50;27.63;;;8.80;99.90;;;;;;4993376;28;20988;-67
2022/03/16 01:58:06;;;;;;;37.37;29.37;;;8.80;99.90;;;;;;4993353;28;20462;-67
2022/03/16 02:00:31;;;;;;;34.70;27.80;;;8.80;99.90;;;;;;4993402;28;20438;-67
2022/03/16 02:02:57;;;;;;;37.00;28.90;;;8.90;99.90;;;;;;4992885;28;20449;-67
2022/03/16 02:05:22;;;;;;;41.27;31.30;;;8.90;99.90;;;;;;4993256;28;20254;-67
2022/03/16 02:07:49;;;;;;;40.97;29.07;;;8.80;99.90;;;;;;4992907;28;20276;-67
2022/03/16 02:10:16;;;;;;;42.20;31.37;;;8.90;99.90;;;;;;4992186;28;20191;-67
2022/03/16 02:12:47;;;;;;;38.27;29.93;;;8.90;99.90;;;;;;4992805;28;20597;-67
2022/03/16 02:15:12;;;;;;;44.07;31.57;;;8.90;99.90;;;;;;4992874;28;20467;-67
2022/03/16 02:17:38;;;;;;;42.80;32.60;;;9.00;99.90;;;;;;4992402;28;20927;-67
2022/03/16 02:20:05;;;;;;;40.20;32.57;;;9.00;99.90;;;;;;4992808;28;20184;-67
2022/03/16 02:22:36;;;;;;;39.70;28.57;;;9.10;99.90;;;;;;4992581;28;20180;-67
2022/03/16 02:25:01;;;;;;;40.23;32.40;;;9.10;99.90;;;;;;4992759;28;20506;-67
2022/03/16 02:27:27;;;;;;;38.23;31.10;;;9.10;99.90;;;;;;4992937;28;20628;-67
2022/03/16 02:29:52;;;;;;;34.20;28.63;;;9.10;99.90;;;;;;4990878;28;20176;-67
2022/03/16 02:32:18;;;;;;;38.03;29.40;;;9.10;99.90;;;;;;4991985;28;20221;-67
2022/03/16 02:34:43;;;;;;;39.27;30.47;;;9.10;99.90;;;;;;4992271;28;20229;-67
2022/03/16 02:37:09;;;;;;;38.37;29.30;;;9.10;99.90;;;;;;4992723;28;20204;-67
2022/03/16 02:39:35;;;;;;;37.57;30.63;;;9.10;99.90;;;;;;4992342;28;20214;-67
2022/03/16 02:42:00;;;;;;;36.57;28.13;;;9.20;99.90;;;;;;4992050;28;20628;-67
2022/03/16 02:44:26;;;;;;;36.90;30.73;;;9.20;99.90;;;;;;4992337;28;20708;-67
2022/03/16 02:46:51;;;;;;;35.63;28.60;;;9.20;99.90;;;;;;4992126;28;20180;-67
2022/03/16 02:49:17;;;;;;;39.80;30.70;;;9.20;99.90;;;;;;4992171;28;20187;-67
2022/03/16 02:51:43;;;;;;;36.30;28.47;;;9.20;99.90;;;;;;4992456;28;20186;-67
2022/03/16 02:54:08;;;;;;;40.30;30.10;;;9.20;99.90;;;;;;4991677;28;20238;-67
2022/03/16 02:56:34;;;;;;;39.77;30.97;;;9.10;99.90;;;;;;4992417;28;20258;-67
2022/03/16 02:59:01;;;;;;;40.63;30.93;;;9.10;99.90;;;;;;4992177;28;20270;-67
2022/03/16 03:01:26;;;;;;;38.90;29.90;;;9.10;99.90;;;;;;4992627;28;20183;-67
2022/03/16 03:03:52;;;;;;;42.00;31.50;;;9.10;99.90;;;;;;4991688;28;20522;-67
2022/03/16 03:06:17;;;;;;;41.90;30.57;;;9.20;99.90;;;;;;4992525;28;20191;-67
2022/03/16 03:08:44;;;;;;;39.53;30.50;;;9.10;99.90;;;;;;4991721;28;20203;-67
2022/03/16 03:11:09;;;;;;;37.67;28.90;;;9.10;99.90;;;;;;4992182;28;20544;-67
2022/03/16 03:13:35;;;;;;;39.83;31.33;;;9.00;99.90;;;;;;4991362;28;20435;-67
2022/03/16 03:16:01;;;;;;;39.43;30.13;;;8.90;99.90;;;;;;4991757;28;20212;-67
2022/03/16 03:18:26;;;;;;;41.10;33.10;;;9.00;99.90;;;;;;4992002;28;20218;-67
2022/03/16 03:20:52;;;;;;;45.03;32.80;;;9.00;99.90;;;;;;4991556;28;20183;-67
2022/03/16 03:23:17;;;;;;;42.17;30.40;;;9.00;99.90;;;;;;4991616;28;20561;-67
2022/03/16 03:25:43;;;;;;;40.80;30.60;;;9.00;99.90;;;;;;4991978;28;20306;-67
2022/03/16 03:28:08;;;;;;;45.07;32.50;;;9.00;99.90;;;;;;4991592;28;20245;-67
2022/03/16 03:30:34;;;;;;;45.23;31.27;;;8.90;99.90;;;;;;4991586;28;20187;-67
2022/03/16 03:32:59;;;;;;;50.27;34.37;;;8.90;99.90;;;;;;4991609;28;20196;-67
2022/03/16 03:35:25;;;;;;;42.53;33.17;;;8.90;99.90;;;;;;4991525;28;20211;-67
2022/03/16 03:37:52;;;;;;;41.03;32.43;;;9.00;99.90;;;;;;4991560;28;20253;-67
2022/03/16 03:40:17;;;;;;;42.60;32.70;;;9.00;99.90;;;;;;4991733;28;20180;-67
2022/03/16 03:42:42;;;;;;;46.87;33.63;;;9.00;99.90;;;;;;4991221;28;20998;-67
2022/03/16 03:45:08;;;;;;;46.00;34.47;;;8.90;99.90;;;;;;4991622;28;20199;-67
2022/03/16 03:47:34;;;;;;;49.70;35.37;;;8.90;99.90;;;;;;4991292;28;20215;-67
2022/03/16 03:49:59;;;;;;;48.50;34.93;;;8.90;99.90;;;;;;4991285;28;20206;-67
2022/03/16 03:52:25;;;;;;;49.40;33.90;;;8.90;99.90;;;;;;4991556;28;20566;-67
2022/03/16 03:54:50;;;;;;;43.70;31.53;;;9.00;99.90;;;;;;4991684;28;20203;-67
2022/03/16 03:57:16;;;;;;;40.00;31.97;;;8.90;99.90;;;;;;4987124;28;20666;-67
2022/03/16 03:59:41;;;;;;;45.77;33.60;;;8.90;99.90;;;;;;4990272;28;20278;-67
2022/03/16 04:02:07;;;;;;;46.57;35.07;;;8.90;99.90;;;;;;4991226;28;20549;-67
2022/03/16 04:04:32;;;;;;;45.57;35.27;;;9.00;99.90;;;;;;4991406;28;20180;-67
2022/03/16 04:06:58;;;;;;;47.60;34.07;;;9.10;99.90;;;;;;4991741;28;20200;-67
2022/03/16 04:09:23;;;;;;;51.77;35.47;;;9.10;99.90;;;;;;4991598;28;20234;-67
2022/03/16 04:11:49;;;;;;;45.57;35.37;;;9.20;99.90;;;;;;4991388;28;20662;-67
2022/03/16 04:14:16;;;;;;;48.70;35.13;;;9.20;99.90;;;;;;4991431;28;20184;-67
2022/03/16 04:16:41;;;;;;;52.30;35.70;;;9.10;99.90;;;;;;4991063;28;20167;-67
2022/03/16 04:19:07;;;;;;;48.23;39.77;;;9.00;99.90;;;;;;4991533;28;20473;-67
2022/03/16 04:21:33;;;;;;;51.50;36.70;;;9.00;99.90;;;;;;4991574;28;20204;-67
2022/03/16 04:23:59;;;;;;;51.73;36.77;;;8.90;99.90;;;;;;4990926;28;20179;-67
2022/03/16 04:26:25;;;;;;;55.07;38.17;;;9.00;99.90;;;;;;4991063;28;20481;-67
2022/03/16 04:28:51;;;;;;;52.43;37.50;;;9.00;99.90;;;;;;4991426;28;20871;-67
2022/03/16 04:31:16;;;;;;;48.40;36.73;;;9.10;99.90;;;;;;4991272;28;20653;-67
2022/03/16 04:33:42;;;;;;;52.10;35.30;;;9.10;99.90;;;;;;4991277;28;20191;-67
2022/03/16 04:36:07;;;;;;;53.67;36.33;;;9.00;99.90;;;;;;4994889;28;20608;-67
2022/03/16 04:38:33;;;;;;;53.10;37.80;;;9.00;99.90;;;;;;4994774;28;20677;-67
2022/03/16 04:41:02;;;;;;;53.80;36.90;;;8.90;99.90;;;;;;4994871;28;20188;-67
2022/03/16 04:43:28;;;;;;;60.77;38.10;;;8.90;99.90;;;;;;4994546;28;20171;-66
2022/03/16 04:45:54;;;;;;;56.03;38.97;;;8.90;99.90;;;;;;4994103;28;20439;-67
2022/03/16 04:48:19;;;;;;;51.90;36.87;;;9.00;99.90;;;;;;4994540;28;20743;-67
2022/03/16 04:50:45;;;;;;;52.70;38.90;;;9.00;99.90;;;;;;4994660;28;20206;-67
2022/03/16 04:53:10;;;;;;;56.70;37.30;;;9.00;99.90;;;;;;4994361;28;20183;-67
2022/03/16 04:55:36;;;;;;;50.27;35.87;;;8.90;99.90;;;;;;4994102;28;20262;-67
2022/03/16 04:58:06;;;;;;;57.07;38.10;;;9.00;99.90;;;;;;4994593;28;20669;-67
2022/03/16 05:00:36;;;;;;;52.47;37.77;;;9.00;99.90;;;;;;4994425;28;20423;-67
2022/03/16 05:03:02;;;;;;;54.60;37.23;;;9.00;99.90;;;;;;4994538;28;20944;-67
2022/03/16 05:05:28;;;;;;;50.97;39.23;;;9.00;99.90;;;;;;4994258;28;20485;-67
2022/03/16 05:07:55;;;;;;;58.80;38.40;;;9.00;99.90;;;;;;4994295;28;20450;-67
2022/03/16 05:10:20;;;;;;;59.97;39.60;;;8.90;99.90;;;;;;4994536;28;20446;-68
2022/03/16 05:12:46;;;;;;;60.03;40.20;;;8.90;99.90;;;;;;4993682;28;20442;-67
2022/03/16 05:15:16;;;;;;;55.70;41.07;;;8.80;99.90;;;;;;4994191;28;20207;-67
2022/03/16 05:17:42;;;;;;;57.23;39.73;;;8.80;99.90;;;;;;4993258;28;20631;-67
2022/03/16 05:20:09;;;;;;;59.40;40.47;;;8.80;99.90;;;;;;4994057;28;20427;-67
2022/03/16 05:22:48;;;;;;;66.50;43.57;;;8.70;99.90;;;;;;4993864;28;20489;-67
2022/03/16 05:25:17;;;;;;;69.30;41.10;;;8.60;99.90;;;;;;4993518;28;20430;-67
2022/03/16 05:27:43;;;;;;;65.33;42.03;;;8.40;99.90;;;;;;4978620;28;20447;-67
2022/03/16 05:30:10;;;;;;;68.43;44.83;;;8.50;99.90;;;;;;4993777;28;20430;-66
2022/03/16 05:32:36;;;;;;;74.80;47.43;;;8.50;99.90;;;;;;4993731;28;20550;-67
2022/03/16 05:35:02;;;;;;;70.33;46.90;;;8.60;99.90;;;;;;4993739;28;20455;-67
2022/03/16 05:37:28;;;;;;;70.90;46.10;;;8.60;99.90;;;;;;4992010;28;20454;-67
2022/03/16 05:39:53;;;;;;;74.50;45.30;;;8.70;99.90;;;;;;4993610;28;20814;-67
2022/03/16 05:42:19;;;;;;;70.13;44.07;;;8.70;99.90;;;;;;4993306;28;20182;-67
2022/03/16 05:44:45;;;;;;;73.47;45.90;;;8.70;99.90;;;;;;4993060;28;20731;-67
2022/03/16 05:47:11;;;;;;;70.33;47.73;;;8.70;99.90;;;;;;4993292;28;20502;-67
2022/03/16 05:49:37;;;;;;;71.70;45.27;;;8.70;99.90;;;;;;4993287;28;20507;-67
2022/03/16 05:52:04;;;;;;;81.30;46.00;;;8.60;99.90;;;;;;4992824;28;20439;-66
2022/03/16 05:54:30;;;;;;;80.77;45.93;;;8.60;99.90;;;;;;4992944;28;20995;-67
2022/03/16 05:56:55;;;;;;;73.47;46.87;;;8.60;99.90;;;;;;4993258;28;20443;-67
2022/03/16 05:59:21;;;;;;;73.33;46.73;;;8.60;99.90;;;;;;4992972;28;20179;-67
2022/03/16 06:01:46;;;;;;;80.13;47.20;;;8.60;99.90;;;;;;4992698;28;20183;-68
2022/03/16 06:04:12;;;;;;;74.40;44.53;;;8.70;99.90;;;;;;4993010;28;20681;-68
2022/03/16 06:06:37;;;;;;;68.07;43.90;;;8.70;99.90;;;;;;4993580;28;20207;-68
2022/03/16 06:09:03;;;;;;;73.47;45.30;;;8.70;99.90;;;;;;4994059;28;20250;-68
2022/03/16 06:11:29;;;;;;;64.73;44.30;;;8.80;99.90;;;;;;4993196;28;20175;-67
2022/03/16 06:13:55;;;;;;;65.47;42.33;;;8.80;99.90;;;;;;4993024;28;20179;-67
2022/03/16 06:16:20;;;;;;;69.47;42.93;;;8.80;99.90;;;;;;4993125;28;20207;-67
2022/03/16 06:18:46;;;;;;;72.63;44.23;;;8.90;99.90;;;;;;4993019;28;20226;-67
2022/03/16 06:21:11;;;;;;;69.23;44.97;;;9.00;99.90;;;;;;4992798;28;20217;-68
2022/03/16 06:23:37;;;;;;;71.03;46.37;;;8.90;99.90;;;;;;4992400;28;20221;-67
2022/03/16 06:26:05;;;;;;;66.80;43.33;;;8.90;99.90;;;;;;4992350;28;20250;-67
2022/03/16 06:28:31;;;;;;;70.23;44.00;;;8.80;99.90;;;;;;4992655;28;20214;-67
2022/03/16 06:30:57;;;;;;;71.40;43.93;;;8.80;99.90;;;;;;4989049;28;20521;-67
2022/03/16 06:33:22;;;;;;;73.53;44.07;;;8.90;99.90;;;;;;4990793;28;20948;-67
2022/03/16 06:35:48;;;;;;;63.53;41.50;;;8.90;99.90;;;;;;4992475;28;20661;-67
2022/03/16 06:38:13;;;;;;;62.90;41.47;;;8.90;99.90;;;;;;4992775;28;20290;-67
2022/03/16 06:40:39;;;;;;;72.73;44.60;;;9.10;99.90;;;;;;4990871;28;20222;-67
2022/03/16 06:43:05;;;;;;;72.57;47.00;;;9.10;99.90;;;;;;4989351;28;20192;-68
2022/03/16 06:45:30;;;;;;;68.97;43.87;;;9.20;99.90;;;;;;4990923;28;20439;-68
2022/03/16 06:47:58;;;;;;;78.53;43.40;;;9.20;99.90;;;;;;4992302;28;20210;-68
2022/03/16 06:50:25;;;;;;;70.07;45.50;;;9.20;99.90;;;;;;4991206;28;20187;-68
2022/03/16 06:52:52;;;;;;;63.10;43.80;;;9.20;99.90;;;;;;4990561;28;20447;-69
2022/03/16 06:55:18;;;;;;;69.23;42.77;;;9.30;99.90;;;;;;4991829;28;20473;-69
2022/03/16 06:57:43;;;;;;;73.53;43.23;;;9.40;99.90;;;;;;4992214;28;20466;-68
2022/03/16 07:00:10;;;;;;;66.13;41.27;;;9.50;99.90;;;;;;4992633;28;20182;-68
2022/03/16 07:03:00;;;;;;;71.13;43.00;;;9.60;99.90;;;;;;4991711;28;20662;-67
2022/03/16 07:05:31;;;;;;;63.30;42.90;;;9.70;99.90;;;;;;4990142;28;20439;-68
2022/03/16 07:07:57;;;;;;;70.53;40.60;;;9.70;99.90;;;;;;4991055;28;20451;-68
2022/03/16 07:10:23;;;;;;;64.60;40.47;;;9.70;99.90;;;;;;4991429;28;20441;-68
2022/03/16 07:12:49;;;;;;;66.30;40.70;;;9.60;99.90;;;;;;4991691;28;20435;-67
2022/03/16 07:15:15;;;;;;;68.00;42.13;;;9.70;99.90;;;;;;4991904;28;20203;-67
2022/03/16 07:17:40;;;;;;;56.63;39.63;;;9.70;99.90;;;;;;4991822;28;20195;-67
2022/03/16 07:20:06;;;;;;;69.07;42.17;;;9.70;99.90;;;;;;4991888;28;20278;-67
2022/03/16 07:22:36;;;;;;;66.83;42.20;;;9.80;99.90;;;;;;4991933;28;20427;-67
2022/03/16 07:25:09;;;;;;;66.97;40.43;;;9.60;99.90;;;;;;4991549;28;20449;-67
2022/03/16 07:27:36;;;;;;;65.13;41.80;;;9.50;99.90;;;;;;4992137;28;20446;-67
2022/03/16 07:30:01;;;;;;;61.87;41.30;;;9.40;99.90;;;;;;4991878;28;20437;-68
2022/03/16 07:32:27;;;;;;;68.10;39.63;;;9.50;99.90;;;;;;4987095;28;20439;-67
2022/03/16 07:34:53;;;;;;;65.47;39.33;;;9.50;99.90;;;;;;4991206;28;20290;-68
2022/03/16 07:37:19;;;;;;;64.30;41.50;;;9.40;99.90;;;;;;4991835;28;20191;-68
2022/03/16 07:39:45;;;;;;;63.97;39.03;;;9.40;99.90;;;;;;4991839;28;20496;-67
2022/03/16 07:42:11;;;;;;;60.83;41.63;;;9.50;99.90;;;;;;4991910;28;20259;-68
2022/03/16 07:44:36;;;;;;;64.63;41.73;;;9.50;99.90;;;;;;4991472;28;20780;-68
2022/03/16 07:47:02;;;;;;;54.37;36.97;;;9.50;99.90;;;;;;4991415;28;20179;-67
2022/03/16 07:49:29;;;;;;;73.00;42.30;;;9.40;99.90;;;;;;4991316;28;20230;-68
2022/03/16 07:51:55;;;;;;;60.40;40.47;;;9.20;99.90;;;;;;4991633;28;20187;-68
2022/03/16 07:54:21;;;;;;;63.10;37.30;;;9.30;99.90;;;;;;4991378;28;20431;-68
2022/03/16 07:56:47;;;;;;;63.17;39.47;;;9.40;99.90;;;;;;4991551;28;20434;-67
2022/03/16 07:59:14;;;;;;;61.60;39.73;;;9.50;99.90;;;;;;4992187;28;20251;-67
2022/03/16 08:01:41;;;;;;;67.10;38.10;;;9.50;99.90;;;;;;4991782;28;20545;-68
2022/03/16 08:04:07;;;;;;;62.10;39.83;;;9.50;99.90;;;;;;4991076;28;21002;-67
2022/03/16 08:06:33;;;;;;;67.83;39.30;;;9.50;99.90;;;;;;4991434;28;20435;-67
2022/03/16 08:08:59;;;;;;;69.13;37.63;;;9.50;99.90;;;;;;4992754;28;20450;-68
2022/03/16 08:11:25;;;;;;;61.03;38.20;;;9.50;99.90;;;;;;4995525;28;20442;-68
2022/03/16 08:13:51;;;;;;;60.73;40.23;;;9.50;99.90;;;;;;4994565;28;20437;-67
2022/03/16 08:16:17;;;;;;;62.00;41.90;;;9.60;99.90;;;;;;4994789;28;20549;-67
2022/03/16 08:18:42;;;;;;;75.83;42.33;;;9.50;99.90;;;;;;4995414;28;20187;-67
2022/03/16 08:21:08;;;;;;;56.17;38.07;;;9.50;99.90;;;;;;4994655;28;20172;-67
2022/03/16 08:23:33;;;;;;;66.33;40.27;;;9.50;99.90;;;;;;4994728;28;20195;-70
2022/03/16 08:25:59;;;;;;;72.93;39.47;;;9.60;99.90;;;;;;4994702;28;20259;-66
2022/03/16 08:28:25;;;;;;;53.40;35.20;;;9.70;99.90;;;;;;4994099;28;20195;-67
2022/03/16 08:30:51;;;;;;;48.50;36.00;;;9.60;99.90;;;;;;4993024;28;20413;-67
2022/03/16 08:33:18;;;;;;;50.87;34.73;;;9.50;99.90;;;;;;4992336;28;20450;-66
2022/03/16 08:35:44;;;;;;;51.10;35.57;;;9.50;99.90;;;;;;4994664;28;20199;-67
2022/03/16 08:38:10;;;;;;;54.87;35.13;;;9.40;99.90;;;;;;4994677;28;20450;-68
2022/03/16 08:40:36;;;;;;;57.20;33.47;;;9.50;99.90;;;;;;4995161;28;20454;-66
2022/03/16 08:43:02;;;;;;;50.17;34.07;;;9.40;99.90;;;;;;4994600;28;20168;-68
2022/03/16 08:45:28;;;;;;;55.00;33.10;;;9.50;99.90;;;;;;4994525;28;20446;-66
2022/03/16 08:47:54;;;;;;;53.47;33.53;;;9.60;99.90;;;;;;4994317;28;20226;-67
2022/03/16 08:50:19;;;;;;;42.87;30.80;;;9.60;99.90;;;;;;4994541;28;20455;-67
2022/03/16 08:52:45;;;;;;;46.40;32.07;;;9.80;99.90;;;;;;4993841;28;20529;-66
2022/03/16 08:55:14;;;;;;;44.00;32.57;;;9.80;99.90;;;;;;4994542;28;20204;-67
2022/03/16 08:57:39;;;;;;;49.43;33.00;;;9.70;99.90;;;;;;4993746;28;20203;-67
2022/03/16 09:00:06;;;;;;;49.50;32.90;;;9.60;99.90;;;;;;4994073;28;20430;-66
2022/03/16 09:02:31;;;;;;;47.60;31.00;;;9.70;99.90;;;;;;4992795;28;20202;-67
2022/03/16 09:04:57;;;;;;;53.97;34.23;;;9.80;99.90;;;;;;4993689;28;20517;-67
2022/03/16 09:07:22;;;;;;;43.27;30.90;;;9.80;99.90;;;;;;4993661;28;20199;-66
2022/03/16 09:09:48;;;;;;;47.23;33.10;;;9.80;99.90;;;;;;4994153;28;20223;-66
2022/03/16 09:12:15;;;;;;;44.60;31.23;;;10.00;99.90;;;;;;4993031;28;20230;-67
2022/03/16 09:14:41;;;;;;;48.37;35.27;;;10.10;99.90;;;;;;4994038;28;20200;-66
2022/03/16 09:17:10;;;;;;;45.03;32.57;;;10.10;99.90;;;;;;4993782;28;20446;-66
2022/03/16 09:19:36;;;;;;;47.97;34.10;;;10.10;99.90;;;;;;4993467;28;20439;-67
2022/03/16 09:22:02;;;;;;;42.67;30.90;;;10.20;99.90;;;;;;4993567;28;20441;-67
2022/03/16 09:24:28;;;;;;;51.30;34.93;;;10.30;99.90;;;;;;4991849;28;20176;-69
2022/03/16 09:39:35;;;;;;;52.30;37.70;;;10.40;99.90;;;;;;5085893;28;20556;-65
2022/03/16 09:42:03;;;;;;;45.23;34.40;;;10.00;99.90;;;;;;5078004;28;20903;-69
2022/03/16 09:44:30;;;;;;;51.27;36.07;;;10.10;99.90;;;;;;5074919;28;20439;-69
2022/03/16 09:46:56;;;;;;;41.43;31.37;;;10.40;99.90;;;;;;5085465;28;20939;-66
2022/03/16 09:49:23;;;;;;;42.47;32.37;;;10.40;99.90;;;;;;5069380;28;20811;-69
2022/03/16 09:51:50;;;;;;;43.80;32.90;;;10.50;99.90;;;;;;5081776;28;20426;-66
2022/03/16 09:54:15;;;;;;;37.73;30.67;;;10.40;99.90;;;;;;5073644;28;20439;-69
2022/03/16 09:56:41;;;;;;;49.53;32.30;;;10.30;99.90;;;;;;5063424;28;20477;-69
2022/03/16 09:59:06;;;;;;;38.70;28.23;;;10.40;99.90;;;;;;5074244;28;20204;-69
2022/03/16 10:01:34;;;;;;;39.50;31.30;;;10.40;99.90;;;;;;5085291;28;20229;-69
2022/03/16 10:04:00;;;;;;;42.20;30.80;;;10.30;99.90;;;;;;5078757;28;20181;-69
2022/03/16 10:06:26;;;;;;;43.90;35.43;;;10.30;99.90;;;;;;5081924;28;20795;-69
2022/03/16 10:14:20;;;;;;;39.57;32.50;;;10.60;99.90;;;;;;5080114;28;20997;-68
2022/03/16 10:19:53;;;;;;;39.47;30.40;;;10.60;99.90;;;;;;5059621;28;20195;-68
2022/03/16 10:22:30;;;;;;;37.57;32.10;;;10.80;99.90;;;;;;5069622;28;20787;-68
2022/03/16 10:25:01;;;;;;;32.13;25.53;;;10.70;99.90;;;;;;5073865;28;20453;-69
2022/03/16 10:27:27;;;;;;;34.97;28.03;;;10.70;99.90;;;;;;5075147;28;20538;-68
2022/03/16 10:29:53;;;;;;;33.40;25.80;;;10.80;99.90;;;;;;5070222;28;20451;-69
2022/03/16 10:32:22;;;;;;;33.43;26.20;;;10.80;99.90;;;;;;5073969;28;20546;-69
2022/03/16 10:34:51;;;;;;;31.97;25.13;;;10.80;99.90;;;;;;5082696;28;20838;-68
2022/03/16 10:37:20;;;;;;;29.37;22.00;;;11.30;99.90;;;;;;5079598;28;20523;-69
2022/03/16 10:39:47;;;;;;;29.80;22.03;;;11.70;99.90;;;;;;5060962;28;20887;-69
2022/03/16 10:48:14;;;;;;;26.97;21.77;;;12.20;99.90;;;;;;5058147;28;20509;-69
2022/03/16 10:50:43;;;;;;;30.47;22.67;;;11.90;99.90;;;;;;5061536;28;20833;-68
2022/03/16 10:53:16;;;;;;;25.40;22.17;;;11.70;99.90;;;;;;5035879;28;20436;-69
2022/03/16 10:55:43;;;;;;;24.40;20.90;;;11.60;99.90;;;;;;5052666;28;20432;-69
2022/03/16 10:58:10;;;;;;;26.27;22.03;;;11.60;99.90;;;;;;5054056;28;20440;-70
2022/03/16 11:00:37;;;;;;;27.67;23.40;;;11.60;99.90;;;;;;5065844;28;20482;-69
2022/03/16 11:03:15;;;;;;;25.97;21.53;;;12.00;99.90;;;;;;5046504;28;20439;-69
2022/03/16 11:05:42;;;;;;;29.40;22.97;;;12.10;99.90;;;;;;5071345;28;20442;-69
2022/03/16 11:08:09;;;;;;;26.90;23.57;;;12.30;99.90;;;;;;5060004;28;20911;-69
2022/03/16 11:10:39;;;;;;;23.23;20.80;;;12.70;99.90;;;;;;5067792;28;21045;-69
2022/03/16 11:16:01;;;;;;;26.47;21.47;;;12.60;99.90;;;;;;5045430;28;20497;-69
2022/03/16 11:18:27;;;;;;;28.27;23.10;;;13.00;99.90;;;;;;5068417;28;20435;-69
2022/03/16 11:21:14;;;;;;;23.00;20.60;;;13.60;99.90;;;;;;5057929;28;20432;-69
2022/03/16 11:26:56;;;;;;;22.93;20.63;;;14.00;99.90;;;;;;5038794;28;20541;-69
2022/03/16 11:29:25;;;;;;;23.73;20.90;;;14.40;99.90;;;;;;4993435;28;20550;-68
2022/03/16 11:32:06;;;;;;;25.80;21.90;;;15.00;99.90;;;;;;5050912;28;20788;-67
2022/03/16 11:34:33;;;;;;;23.50;21.00;;;15.40;99.90;;;;;;5053055;28;20525;-69
2022/03/16 11:37:01;;;;;;;24.10;21.70;;;15.60;99.90;;;;;;5054304;28;20914;-70
2022/03/16 11:39:37;;;;;;;24.10;21.27;;;15.40;99.90;;;;;;5070704;28;20535;-70
2022/03/16 11:42:06;;;;;;;22.07;19.97;;;14.70;99.90;;;;;;5051435;28;20423;-69
2022/03/16 11:44:33;;;;;;;24.90;22.30;;;14.90;99.90;;;;;;5056645;28;20431;-70
2022/03/16 11:47:10;;;;;;;22.67;20.30;;;15.50;99.90;;;;;;5050291;28;20428;-69
2022/03/16 11:49:45;;;;;;;23.53;21.00;;;15.70;99.90;;;;;;5053557;28;20462;-67
2022/03/16 11:52:11;;;;;;;23.43;20.90;;;16.00;99.90;;;;;;5061368;28;20423;-66
2022/03/16 11:54:45;;;;;;;23.10;20.70;;;16.30;99.90;;;;;;5065379;28;20456;-67
2022/03/16 11:57:12;;;;;;;24.30;20.77;;;16.20;99.90;;;;;;5050631;28;20566;-68
2022/03/16 11:59:44;;;;;;;26.47;21.57;;;16.50;99.90;;;;;;5050431;28;20436;-67
2022/03/16 12:02:30;;;;;;;22.67;19.70;;;17.10;99.90;;;;;;5050408;28;20436;-66
2022/03/16 12:05:01;;;;;;;22.10;19.83;;;16.80;99.90;;;;;;5054044;28;20432;-67
2022/03/16 12:07:34;;;;;;;23.00;20.50;;;16.10;99.90;;;;;;5039180;28;20548;-67
2022/03/16 12:10:11;;;;;;;23.40;21.13;;;15.80;99.90;;;;;;5052968;28;20887;-64
2022/03/16 12:12:51;;;;;;;21.73;19.07;;;15.10;99.90;;;;;;5048633;28;20432;-67
2022/03/16 12:15:37;;;;;;;24.13;21.53;;;15.10;99.90;;;;;;5051310;28;20443;-68
2022/03/16 12:18:12;;;;;;;22.80;20.53;;;15.00;99.90;;;;;;5067972;28;20458;-69
2022/03/16 12:20:41;;;;;;;23.73;21.10;;;15.00;99.90;;;;;;5043113;28;20443;-74
2022/03/16 12:23:12;;;;;;;21.83;19.53;;;15.10;99.90;;;;;;5058219;28;20987;-69
2022/03/16 12:25:42;;;;;;;21.83;19.63;;;15.20;99.90;;;;;;5035997;28;20561;-69
2022/03/16 12:31:21;;;;;;;23.00;20.53;;;14.70;99.90;;;;;;5057674;28;20450;-67
2022/03/16 12:33:56;;;;;;;24.47;19.90;;;14.10;99.90;;;;;;5040696;28;20528;-69
2022/03/16 12:36:33;;;;;;;25.13;20.33;;;13.70;99.90;;;;;;5008265;28;20453;-69
2022/03/16 12:39:00;;;;;;;24.70;21.00;;;13.60;99.90;;;;;;5016858;28;20532;-69
2022/03/16 12:44:12;;;;;;;24.83;22.27;;;13.70;99.90;;;;;;5010969;28;20540;-69
2022/03/16 12:46:47;;;;;;;20.87;18.80;;;13.50;99.90;;;;;;5026319;28;20449;-68
2022/03/16 12:49:16;;;;;;;21.40;19.20;;;13.80;99.90;;;;;;5007176;28;20491;-69
2022/03/16 12:51:44;;;;;;;22.20;19.83;;;13.80;99.90;;;;;;5006478;28;20970;-69
2022/03/16 12:54:12;;;;;;;24.50;20.87;;;13.40;99.90;;;;;;5011396;28;20529;-69
2022/03/16 12:56:48;;;;;;;23.17;20.70;;;13.50;99.90;;;;;;5008916;28;21071;-69
2022/03/16 12:59:24;;;;;;;22.37;19.93;;;13.70;99.90;;;;;;5014531;28;20971;-69
2022/03/16 13:01:53;;;;;;;24.43;21.90;;;13.70;99.90;;;;;;5023966;28;20444;-69
2022/03/16 13:04:19;;;;;;;25.43;20.80;;;13.90;99.90;;;;;;5013483;28;20429;-69
2022/03/16 13:06:46;;;;;;;23.37;20.87;;;13.90;99.90;;;;;;5014266;28;20815;-69
2022/03/16 13:09:11;;;;;;;23.30;20.80;;;13.70;99.90;;;;;;5020547;28;20217;-69
2022/03/16 13:11:39;;;;;;;24.77;20.63;;;13.70;99.90;;;;;;5013373;28;20919;-67